createdAt,value
2022-09-05T00:00:19.396Z,4.00
2022-09-05T00:03:34.274Z,3.65
2022-09-05T00:06:22.227Z,3.50
2022-09-05T00:09:19.125Z,3.45
2022-09-05T00:12:09.901Z,3.53
2022-09-05T00:15:27.226Z,3.42
2022-09-05T00:23:43.913Z,3.50
2022-09-05T00:24:25.377Z,3.72
2022-09-05T00:28:45.954Z,3.90
2022-09-05T00:32:04.296Z,3.50
2022-09-05T00:35:07.949Z,3.63
2022-09-05T00:37:54.789Z,3.30
2022-09-05T00:40:47.777Z,3.28
2022-09-05T00:43:42.988Z,3.63
2022-09-05T00:46:33.689Z,3.45
2022-09-05T00:49:45.668Z,3.20
2022-09-05T00:52:40.114Z,3.50
2022-09-05T00:55:32.125Z,3.55
2022-09-05T00:58:34.133Z,3.42
2022-09-05T01:01:29.473Z,3.35
2022-09-05T01:04:27.649Z,3.30
2022-09-05T01:07:46.513Z,4.10
2022-09-05T01:10:39.096Z,3.50
2022-09-05T01:13:40.341Z,3.40
2022-09-05T01:16:52.360Z,3.53
2022-09-05T01:19:50.802Z,3.50
2022-09-05T01:22:55.481Z,3.30
2022-09-05T01:26:11.802Z,3.72
2022-09-05T01:29:23.003Z,3.50
2022-09-05T01:32:21.129Z,3.50
2022-09-05T01:35:26.028Z,3.65
2022-09-05T01:38:37.308Z,3.50
2022-09-05T01:42:11.413Z,3.22
2022-09-05T01:45:39.917Z,3.13
2022-09-05T01:48:31.909Z,3.42
2022-09-05T01:51:33.469Z,3.50
2022-09-05T01:54:38.237Z,3.90
2022-09-05T01:57:38.805Z,3.35
2022-09-05T02:00:35.413Z,4.05
2022-09-05T02:03:44.577Z,3.28
2022-09-05T02:06:53.645Z,3.10
2022-09-05T02:09:40.214Z,3.30
2022-09-05T02:12:35.330Z,3.40
2022-09-05T02:15:36.378Z,3.50
2022-09-05T02:18:38.049Z,3.30
2022-09-05T02:21:55.662Z,3.28
2022-09-05T02:24:53.587Z,3.30
2022-09-05T02:28:29.486Z,3.30
2022-09-05T02:31:34.471Z,3.30
2022-09-05T02:34:48.597Z,3.30
2022-09-05T02:38:38.043Z,3.25
2022-09-05T02:45:13.548Z,3.28
2022-09-05T02:45:20.114Z,3.55
2022-09-05T02:47:15.938Z,3.63
2022-09-05T02:51:12.790Z,3.50
2022-09-05T02:57:34.568Z,3.00
2022-09-05T02:57:39.947Z,3.72
2022-09-05T03:00:18.446Z,3.80
2022-09-05T03:03:17.417Z,3.40
2022-09-05T03:06:35.152Z,3.80
2022-09-05T03:09:55.328Z,3.70
2022-09-05T03:13:04.543Z,3.60
2022-09-05T03:15:53.664Z,3.55
2022-09-05T03:18:45.430Z,3.80
2022-09-05T03:21:53.209Z,3.95
2022-09-05T03:25:03.673Z,3.22
2022-09-05T03:28:03.397Z,3.47
2022-09-05T03:31:20.294Z,3.97
2022-09-05T03:34:27.122Z,3.63
2022-09-05T03:37:51.985Z,3.63
2022-09-05T03:41:06.877Z,3.83
2022-09-05T03:44:32.390Z,4.13
2022-09-05T03:47:47.228Z,3.83
2022-09-05T03:57:06.233Z,4.18
2022-09-05T03:57:14.287Z,3.53
2022-09-05T03:57:57.597Z,3.90
2022-09-05T04:01:25.592Z,3.63
2022-09-05T04:08:28.208Z,4.05
2022-09-05T04:08:29.604Z,3.97
2022-09-05T04:11:14.132Z,3.70
2022-09-05T04:14:26.868Z,3.88
2022-09-05T04:18:04.210Z,4.28
2022-09-05T04:21:05.124Z,4.00
2022-09-05T04:24:03.715Z,4.38
2022-09-05T04:27:28.134Z,3.90
2022-09-05T04:30:39.119Z,4.43
2022-09-05T04:33:43.284Z,4.28
2022-09-05T04:36:33.528Z,4.22
2022-09-05T04:39:19.663Z,4.03
2022-09-05T04:42:05.153Z,4.57
2022-09-05T04:45:10.549Z,4.47
2022-09-05T04:48:00.852Z,4.20
2022-09-05T04:51:08.273Z,4.53
2022-09-05T04:54:15.421Z,4.30
2022-09-05T04:57:22.765Z,4.47
2022-09-05T05:06:02.446Z,4.50
2022-09-05T05:06:18.898Z,4.40
2022-09-05T05:07:10.068Z,4.30
2022-09-05T05:11:06.156Z,4.20
2022-09-05T05:18:00.928Z,4.60
2022-09-05T05:18:08.799Z,4.82
2022-09-05T05:19:37.946Z,4.72
2022-09-05T05:22:24.298Z,4.80
2022-09-05T05:25:13.309Z,4.47
2022-09-05T05:28:23.995Z,4.03
2022-09-05T05:31:21.579Z,3.97
2022-09-05T05:34:29.731Z,3.65
2022-09-05T05:37:38.442Z,4.07
2022-09-05T05:40:28.726Z,4.40
2022-09-05T05:43:20.873Z,4.30
2022-09-05T05:46:08.596Z,4.30
2022-09-05T05:49:07.822Z,4.15
2022-09-05T05:52:27.668Z,4.15
2022-09-05T05:55:50.556Z,4.30
2022-09-05T05:59:09.811Z,4.22
2022-09-05T06:01:58.679Z,4.43
2022-09-05T06:04:45.362Z,4.78
2022-09-05T06:10:44.378Z,4.10
2022-09-05T06:15:07.079Z,3.80
2022-09-05T06:15:26.645Z,4.32
2022-09-05T06:18:49.725Z,4.35
2022-09-05T06:22:09.936Z,4.53
2022-09-05T06:25:30.013Z,4.18
2022-09-05T06:28:30.524Z,4.20
2022-09-05T06:31:47.832Z,4.13
2022-09-05T06:34:42.821Z,4.50
2022-09-05T06:37:45.223Z,3.90
2022-09-05T06:41:22.429Z,4.50
2022-09-05T06:44:15.281Z,4.13
2022-09-05T06:47:23.197Z,4.40
2022-09-05T06:50:26.941Z,3.58
2022-09-05T06:53:47.098Z,3.80
2022-09-05T06:56:47.447Z,3.80
2022-09-05T06:59:57.834Z,3.88
2022-09-05T07:03:02.972Z,3.90
2022-09-05T07:06:19.526Z,3.65
2022-09-05T07:09:32.387Z,3.60
2022-09-05T07:12:30.156Z,3.65
2022-09-05T07:15:47.323Z,3.85
2022-09-05T07:19:03.155Z,4.15
2022-09-05T07:22:29.377Z,3.80
2022-09-05T07:25:31.626Z,3.38
2022-09-05T07:28:29.898Z,3.83
2022-09-05T07:31:27.321Z,4.00
2022-09-05T07:34:31.427Z,3.88
2022-09-05T07:37:29.612Z,3.85
2022-09-05T07:40:26.280Z,3.70
2022-09-05T07:43:19.425Z,3.60
2022-09-05T07:46:19.503Z,3.70
2022-09-05T07:49:12.141Z,3.17
2022-09-05T07:56:50.219Z,3.72
2022-09-05T07:57:09.635Z,3.58
2022-09-05T07:58:41.724Z,3.40
2022-09-05T08:01:27.762Z,3.60
2022-09-05T08:04:22.364Z,3.60
2022-09-05T08:07:46.438Z,3.42
2022-09-05T08:11:22.562Z,3.40
2022-09-05T08:13:53.603Z,3.72
2022-09-05T08:16:52.627Z,3.33
2022-09-05T08:20:07.922Z,3.58
2022-09-05T08:23:07.637Z,3.30
2022-09-05T08:25:59.481Z,3.50
2022-09-05T08:29:05.721Z,3.20
2022-09-05T08:32:18.216Z,2.95
2022-09-05T08:35:09.633Z,3.15
2022-09-05T08:37:58.073Z,3.20
2022-09-05T08:41:04.964Z,2.92
2022-09-05T08:46:40.348Z,3.03
2022-09-05T08:48:14.149Z,3.00
2022-09-05T08:51:18.784Z,3.47
2022-09-05T08:54:14.100Z,3.00
2022-09-05T08:57:39.021Z,2.90
2022-09-05T09:00:31.358Z,3.25
2022-09-05T09:04:01.993Z,2.88
2022-09-05T09:07:47.793Z,3.00
2022-09-05T09:10:34.904Z,2.85
2022-09-05T09:14:23.395Z,3.00
2022-09-05T09:17:29.429Z,2.90
2022-09-05T09:20:22.764Z,2.60
2022-09-05T09:23:32.253Z,2.85
2022-09-05T09:26:37.575Z,2.72
2022-09-05T09:29:25.382Z,2.70
2022-09-05T09:32:17.559Z,2.92
2022-09-05T09:35:05.634Z,2.65
2022-09-05T09:38:13.910Z,2.63
2022-09-05T09:41:09.123Z,2.70
2022-09-05T09:44:46.383Z,2.92
2022-09-05T09:47:55.037Z,2.75
2022-09-05T09:51:12.252Z,2.60
2022-09-05T09:54:05.536Z,3.00
2022-09-05T09:57:22.473Z,3.00
2022-09-05T10:00:21.474Z,3.00
2022-09-05T10:09:56.559Z,2.50
2022-09-05T10:11:00.444Z,2.80
2022-09-05T10:11:24.508Z,3.28
2022-09-05T10:14:35.443Z,3.22
2022-09-05T10:17:22.118Z,3.10
2022-09-05T10:20:14.693Z,2.90
2022-09-05T10:23:37.862Z,3.15
2022-09-05T10:26:52.855Z,3.83
2022-09-05T10:30:03.798Z,3.42
2022-09-05T10:35:14.234Z,3.47
2022-09-05T10:36:39.152Z,2.92
2022-09-05T10:39:40.660Z,2.85
2022-09-05T10:43:00.980Z,3.10
2022-09-05T10:45:51.641Z,3.25
2022-09-05T10:49:03.395Z,3.00
2022-09-05T10:52:03.519Z,2.90
2022-09-05T10:55:30.368Z,3.22
2022-09-05T10:59:53.294Z,2.78
2022-09-05T11:02:27.671Z,2.85
2022-09-05T11:05:26.817Z,2.78
2022-09-05T11:08:26.884Z,3.03
2022-09-05T11:11:34.393Z,3.08
2022-09-05T11:14:53.915Z,2.80
2022-09-05T11:17:56.039Z,3.10
2022-09-05T11:20:44.856Z,3.03
2022-09-05T11:23:57.400Z,3.17
2022-09-05T11:27:28.333Z,2.80
2022-09-05T11:30:28.916Z,2.90
2022-09-05T11:39:53.883Z,2.70
2022-09-05T11:39:58.952Z,3.03
2022-09-05T11:40:31.711Z,3.05
2022-09-05T11:43:18.112Z,3.05
2022-09-05T11:46:37.153Z,3.03
2022-09-05T11:49:52.613Z,3.00
2022-09-05T11:52:55.038Z,2.90
2022-09-05T11:55:53.746Z,2.78
2022-09-05T11:59:07.215Z,2.65
2022-09-05T12:02:26.358Z,2.90
2022-09-05T12:05:49.689Z,2.78
2022-09-05T12:08:55.987Z,2.80
2022-09-05T12:12:41.462Z,2.83
2022-09-05T12:15:34.856Z,3.42
2022-09-05T12:18:36.469Z,3.10
2022-09-05T12:21:38.378Z,2.63
2022-09-05T12:25:26.569Z,2.70
2022-09-05T12:28:28.872Z,3.08
2022-09-05T12:32:50.421Z,2.67
2022-09-05T12:36:11.513Z,2.70
2022-09-05T12:40:08.662Z,2.90
2022-09-05T12:41:40.699Z,2.55
2022-09-05T12:44:44.728Z,2.83
2022-09-05T12:47:31.290Z,2.63
2022-09-05T12:50:23.176Z,2.40
2022-09-05T12:53:15.953Z,2.50
2022-09-05T12:57:29.172Z,2.60
2022-09-05T13:02:58.986Z,2.25
2022-09-05T13:03:14.118Z,2.70
2022-09-05T13:05:52.659Z,2.78
2022-09-05T13:08:59.071Z,2.45
2022-09-05T13:15:02.506Z,2.50
2022-09-05T13:15:23.536Z,2.40
2022-09-05T13:18:16.535Z,3.15
2022-09-05T13:21:08.449Z,2.60
2022-09-05T13:24:17.352Z,2.40
2022-09-05T13:27:17.185Z,2.50
2022-09-05T13:32:39.029Z,2.80
2022-09-05T13:38:16.420Z,2.90
2022-09-05T13:38:17.824Z,2.40
2022-09-05T13:43:04.029Z,2.83
2022-09-05T13:46:10.993Z,2.60
2022-09-05T13:49:24.579Z,2.80
2022-09-05T13:52:35.703Z,2.15
2022-09-05T13:55:37.995Z,2.50
2022-09-05T13:58:56.674Z,2.50
2022-09-05T14:01:44.147Z,2.30
2022-09-05T14:05:20.765Z,2.88
2022-09-05T14:09:35.173Z,2.58
2022-09-05T14:12:11.534Z,3.60
2022-09-05T14:15:14.210Z,3.65
2022-09-05T14:18:20.431Z,3.05
2022-09-05T14:21:18.110Z,2.92
2022-09-05T14:24:27.920Z,2.78
2022-09-05T14:27:27.915Z,2.95
2022-09-05T14:33:56.641Z,2.90
2022-09-05T14:37:44.562Z,3.25
2022-09-05T14:37:54.128Z,3.33
2022-09-05T14:40:00.782Z,3.20
2022-09-05T14:43:14.240Z,3.03
2022-09-05T14:45:50.656Z,2.90
2022-09-05T14:48:45.667Z,2.58
2022-09-05T14:51:39.288Z,2.95
2022-09-05T15:02:33.956Z,2.88
2022-09-05T15:02:53.743Z,2.78
2022-09-05T15:03:03.839Z,3.17
2022-09-05T15:05:45.359Z,2.80
2022-09-05T15:10:20.387Z,2.70
2022-09-05T15:12:21.379Z,2.92
2022-09-05T15:14:07.711Z,2.80
2022-09-05T15:16:43.261Z,2.88
2022-09-05T15:19:11.993Z,2.60
2022-09-05T15:21:41.549Z,3.00
2022-09-05T15:24:21.238Z,2.67
2022-09-05T15:26:53.095Z,3.10
2022-09-05T15:29:26.755Z,2.97
2022-09-05T15:32:11.902Z,3.10
2022-09-05T15:34:39.861Z,3.15
2022-09-05T15:37:38.681Z,3.05
2022-09-05T15:40:07.630Z,2.67
2022-09-05T15:45:37.861Z,2.78
2022-09-05T15:48:12.775Z,3.17
2022-09-05T15:50:55.408Z,3.08
2022-09-05T15:53:37.023Z,2.80
2022-09-05T15:56:19.593Z,2.92
2022-09-05T15:58:55.023Z,3.05
2022-09-05T16:01:59.757Z,2.72
2022-09-05T16:07:40.956Z,3.03
2022-09-05T16:10:33.768Z,2.97
2022-09-05T16:10:57.600Z,2.92
2022-09-05T16:13:19.397Z,2.47
2022-09-05T16:23:19.592Z,2.85
2022-09-05T16:23:24.301Z,2.67
2022-09-05T16:23:29.700Z,2.83
2022-09-05T16:25:00.247Z,2.58
2022-09-05T16:27:59.230Z,2.67
2022-09-05T16:30:29.071Z,2.67
2022-09-05T16:33:28.518Z,2.80
2022-09-05T16:36:04.612Z,2.78
2022-09-05T16:38:49.931Z,2.63
2022-09-05T16:41:26.763Z,3.10
2022-09-05T16:44:14.137Z,3.00
2022-09-05T16:46:56.282Z,3.05
2022-09-05T16:49:41.955Z,2.80
2022-09-05T16:52:17.216Z,3.20
2022-09-05T16:54:54.713Z,2.92
2022-09-05T16:57:35.778Z,2.90
2022-09-05T17:00:08.838Z,3.13
2022-09-05T17:02:50.423Z,3.10
2022-09-05T17:05:43.506Z,3.10
2022-09-05T17:08:10.901Z,3.17
2022-09-05T17:10:57.675Z,3.08
2022-09-05T17:13:50.958Z,3.58
2022-09-05T17:16:34.931Z,3.35
2022-09-05T17:19:03.257Z,3.35
2022-09-05T17:22:02.468Z,3.20
2022-09-05T17:29:28.939Z,3.50
2022-09-05T17:29:30.092Z,4.38
2022-09-05T17:33:01.570Z,4.30
2022-09-05T17:35:44.038Z,3.67
2022-09-05T17:38:20.923Z,3.58
2022-09-05T17:41:17.425Z,4.40
2022-09-05T17:44:10.471Z,3.80
2022-09-05T17:46:56.590Z,3.50
2022-09-05T17:49:45.462Z,4.18
2022-09-05T17:52:17.344Z,3.97
2022-09-05T17:54:49.941Z,3.90
2022-09-05T17:57:47.832Z,3.80
2022-09-05T18:00:50.237Z,3.53
2022-09-05T18:03:40.499Z,3.95
2022-09-05T18:06:14.700Z,3.58
2022-09-05T18:08:44.979Z,3.70
2022-09-05T18:14:10.064Z,3.70
2022-09-05T18:17:36.803Z,3.60
2022-09-05T18:19:41.414Z,4.00
2022-09-05T18:22:28.725Z,3.83
2022-09-05T18:25:28.875Z,3.63
2022-09-05T18:28:22.020Z,3.75
2022-09-05T18:30:50.360Z,3.83
2022-09-05T18:33:54.432Z,4.13
2022-09-05T18:36:25.929Z,3.70
2022-09-05T18:39:24.227Z,4.30
2022-09-05T18:42:26.630Z,3.72
2022-09-05T18:45:16.036Z,3.83
2022-09-05T18:47:59.032Z,3.85
2022-09-05T18:50:32.510Z,3.30
2022-09-05T18:53:09.911Z,3.70
2022-09-05T18:56:12.957Z,3.88
2022-09-05T18:59:15.517Z,3.60
2022-09-05T19:02:05.079Z,3.53
2022-09-05T19:04:55.108Z,3.88
2022-09-05T19:07:41.533Z,3.88
2022-09-05T19:10:34.522Z,4.20
2022-09-05T19:13:19.522Z,4.30
2022-09-05T19:16:43.993Z,3.53
2022-09-05T19:19:16.164Z,4.07
2022-09-05T19:22:48.553Z,4.43
2022-09-05T19:24:51.019Z,3.80
2022-09-05T19:28:23.389Z,3.40
2022-09-05T19:36:52.634Z,3.75
2022-09-05T19:37:04.342Z,3.90
2022-09-05T19:37:08.359Z,3.83
2022-09-05T19:39:36.282Z,3.60
2022-09-05T19:47:34.402Z,3.63
2022-09-05T19:47:34.475Z,3.92
2022-09-05T19:47:56.323Z,3.45
2022-09-05T19:50:21.111Z,3.63
2022-09-05T19:53:03.314Z,3.47
2022-09-05T19:55:37.590Z,3.55
2022-09-05T19:58:20.206Z,3.63
2022-09-05T20:01:02.243Z,3.35
2022-09-05T20:03:39.961Z,3.83
2022-09-05T20:06:29.076Z,3.70
2022-09-05T20:09:17.705Z,3.55
2022-09-05T20:11:53.542Z,3.80
2022-09-05T20:14:21.288Z,3.75
2022-09-05T20:16:52.379Z,3.72
2022-09-05T20:19:33.998Z,4.15
2022-09-05T20:22:21.179Z,3.92
2022-09-05T20:24:54.635Z,4.05
2022-09-05T20:27:27.685Z,4.60
2022-09-05T20:30:02.385Z,4.65
2022-09-05T20:32:46.052Z,4.97
2022-09-05T20:38:38.127Z,4.78
2022-09-05T20:43:29.713Z,4.90
2022-09-05T20:43:35.355Z,4.82
2022-09-05T20:44:16.940Z,4.20
2022-09-05T20:54:07.326Z,4.68
2022-09-05T20:54:12.676Z,4.68
2022-09-05T20:54:27.969Z,4.82
2022-09-05T20:55:42.048Z,4.57
2022-09-05T20:58:14.104Z,4.57
2022-09-05T21:01:20.497Z,4.88
2022-09-05T21:03:38.073Z,4.85
2022-09-05T21:06:29.435Z,5.00
2022-09-05T21:09:25.116Z,5.15
2022-09-05T21:11:56.148Z,4.95
2022-09-05T21:14:26.585Z,4.47
2022-09-05T21:17:13.446Z,4.90
2022-09-05T21:19:53.749Z,4.93
2022-09-05T21:22:43.816Z,4.88
2022-09-05T21:25:19.150Z,4.68
2022-09-05T21:28:05.700Z,4.63
2022-09-05T21:30:39.333Z,4.50
2022-09-05T21:33:15.968Z,4.70
2022-09-05T21:35:50.274Z,5.05
2022-09-05T21:38:32.290Z,4.72
2022-09-05T21:41:02.848Z,4.38
2022-09-05T21:47:37.332Z,5.05
2022-09-05T21:47:44.001Z,4.45
2022-09-05T21:49:09.925Z,4.93
2022-09-05T21:51:38.653Z,4.60
2022-09-05T21:59:21.572Z,4.60
2022-09-05T21:59:29.498Z,4.88
2022-09-05T21:59:57.742Z,4.50
2022-09-05T22:02:31.963Z,4.20
2022-09-05T22:05:03.135Z,4.90
2022-09-05T22:07:35.806Z,4.15
2022-09-05T22:10:05.851Z,4.50
2022-09-05T22:12:38.603Z,4.20
2022-09-05T22:15:27.586Z,4.13
2022-09-05T22:18:16.578Z,4.25
2022-09-05T22:20:51.795Z,4.18
2022-09-05T22:23:38.615Z,4.10
2022-09-05T22:26:06.705Z,3.65
2022-09-05T22:28:38.549Z,4.20
2022-09-05T22:31:07.166Z,4.40
2022-09-05T22:33:36.435Z,4.13
2022-09-05T22:36:04.521Z,3.75
2022-09-05T22:38:33.362Z,3.72
2022-09-05T22:41:00.969Z,3.63
2022-09-05T22:43:33.509Z,3.45
2022-09-05T22:46:00.983Z,3.58
2022-09-05T22:48:28.659Z,3.67
2022-09-05T22:50:56.633Z,3.95
2022-09-05T22:53:23.971Z,3.28
2022-09-05T22:55:57.912Z,3.70
2022-09-05T22:58:26.596Z,2.95
2022-09-05T23:00:54.270Z,3.22
2022-09-05T23:03:21.887Z,3.90
2022-09-05T23:05:49.322Z,3.47
2022-09-05T23:08:16.984Z,3.38
2022-09-05T23:10:45.713Z,3.63
2022-09-05T23:13:13.066Z,3.47
2022-09-05T23:15:40.666Z,3.00
2022-09-05T23:18:08.069Z,3.58
2022-09-05T23:20:35.469Z,3.50
2022-09-05T23:23:05.144Z,3.10
2022-09-05T23:25:33.776Z,2.95
2022-09-05T23:28:06.302Z,3.08
2022-09-05T23:30:35.290Z,3.35
2022-09-05T23:33:06.220Z,3.33
2022-09-05T23:35:34.965Z,3.03
2022-09-05T23:38:02.985Z,2.70
2022-09-05T23:40:30.321Z,3.28
2022-09-05T23:43:01.124Z,2.90
2022-09-05T23:45:29.244Z,2.78
2022-09-05T23:47:58.262Z,2.80
2022-09-05T23:50:27.090Z,3.00
2022-09-05T23:52:54.912Z,2.80
2022-09-05T23:55:23.356Z,2.83
2022-09-05T23:57:57.306Z,2.83
